Latest Weather Observations for Broken Hill Airport

IDN60801

Issued at 9:03 pm EDT Sunday 25 January 2015 (issued every 30 minutes, with the page automatically refreshed every 10 minutes)

About weather observations | Map of weather stations | Latest weather observations for NSW | Other Formats
Station Details ID: 047048 Name: BROKEN HILL AIRPORT AWS Lat: -32.00 Lon: 141.47 Height: 281.3 m
Data from the previous 72 hours. | See also: Recent months for locations in New South Wales
Date/Time
EDT
Temp
°C
App
Temp
°C
Dew
Point
Rel
Hum
%
Delta-T
°C
Wind Press
QNH
hPa
Press
MSL
hPa
Rain
since 9 am
mm
Dir
 
Spd
km/h
Gust
km/h
Spd
kts
Gust
kts
25/08:30pm 23.9 18.0 1.5 23 10.7 S 22 28 12 15 1011.1 1009.5 0.0
25/08:00pm 24.3 18.5 2.5 24 10.6 S 22 32 12 17 1011.0 1009.4 0.0
25/07:30pm 25.1 18.6 2.5 23 11.1 S 26 35 14 19 1010.9 1009.3 0.0
25/07:00pm 25.9 19.2 3.8 24 11.1 S 28 44 15 24 1010.7 1009.1 0.0
25/06:30pm 26.6 20.8 4.4 24 11.4 S 24 35 13 19 1010.6 1009.0 0.0
25/06:00pm 26.3 21.1 3.5 23 11.5 S 20 33 11 18 1010.6 1009.0 0.0
25/05:30pm 26.5 20.6 3.7 23 11.5 SW 24 35 13 19 1010.4 1008.8 0.0
25/05:00pm 26.3 20.9 4.7 25 11.1 SW 22 33 12 18 1010.4 1008.8 0.0
25/04:30pm 26.5 20.3 4.3 24 11.3 SSW 26 41 14 22 1010.5 1008.9 0.0
25/04:00pm 25.8 19.7 4.9 26 10.7 SSW 26 35 14 19 1010.5 1008.9 0.0
25/03:30pm 26.0 21.4 6.6 29 10.3 SSW 20 35 11 19 1010.8 1009.2 0.0
25/03:00pm 25.4 19.8 5.6 28 10.3 SSW 24 35 13 19 1010.8 1009.2 0.0
25/02:30pm 24.9 20.0 7.1 32 9.4 SSW 22 33 12 18 1011.1 1009.5 0.0
25/02:00pm 24.5 19.9 6.3 31 9.5 SSW 20 33 11 18 1011.4 1009.8 0.0
25/01:30pm 24.2 18.5 6.5 32 9.3 SSW 26 37 14 20 1011.6 1010.0 0.0
25/01:00pm 24.1 18.9 8.9 38 8.3 SSW 26 35 14 19 1011.9 1010.2 0.0
25/12:30pm 23.3 18.7 9.7 42 7.5 SSW 24 39 13 21 1011.9 1010.2 0.0
25/12:00pm 22.8 17.8 9.6 43 7.2 SSW 26 39 14 21 1011.6 1010.0 0.0
25/11:30am 21.9 16.6 9.8 46 6.6 SSW 28 37 15 20 1011.6 1010.0 0.0
25/11:00am 21.4 16.6 10.3 49 6.1 S 26 37 14 20 1011.8 1010.1 0.0
25/10:30am 20.9 15.2 9.8 49 6.0 SSW 30 39 16 21 1011.8 1010.1 0.0
25/09:30am 19.7 13.8 10.4 55 5.1 S 32 44 17 24 1011.5 1009.9 0.0
25/09:00am 19.1 12.5 10.1 56 4.9 S 35 46 19 25 1011.2 1009.6 0.0
25/08:30am 18.5 12.1 10.6 60 4.3 SSW 35 44 19 24 1011.1 1009.5 0.0
25/08:00am 18.1 12.3 10.7 62 4.0 SSW 32 39 17 21 1010.9 1009.3 0.0
25/07:30am 17.7 12.6 10.6 63 3.9 SSW 28 35 15 19 1010.7 1009.1 0.0
25/07:00am 17.3 13.3 10.4 64 3.7 SSW 22 28 12 15 1010.2 1008.6 0.0
25/06:30am 17.7 12.9 10.3 62 4.0 SSW 26 32 14 17 1009.7 1008.0 0.0
25/06:00am 18.2 13.0 10.3 60 4.3 SSW 28 37 15 20 1009.2 1007.5 0.0
25/05:30am 18.4 13.1 10.0 58 4.5 SSW 28 35 15 19 1009.0 1007.3 0.0
25/05:00am 18.8 12.7 9.8 56 4.9 SSW 32 43 17 23 1008.9 1007.2 0.0
25/04:30am 19.3 12.6 9.5 53 5.3 SSW 35 48 19 26 1008.6 1006.9 0.0
25/04:00am 19.8 14.1 9.7 52 5.5 SSW 30 37 16 20 1008.4 1006.7 0.0
25/03:30am 20.3 14.4 8.9 48 6.1 SSW 30 37 16 20 1008.4 1006.7 0.0
25/03:00am 20.9 14.9 8.5 45 6.6 SSW 30 35 16 19 1008.3 1006.6 0.0
25/02:30am 21.7 15.1 8.6 43 7.0 SSW 33 43 18 23 1008.2 1006.5 0.0
25/02:00am 22.1 16.2 8.9 43 7.1 SSW 30 39 16 21 1008.1 1006.4 0.0
25/01:30am 22.8 16.4 8.5 40 7.7 SSW 32 37 17 20 1007.9 1006.3 0.0
25/01:00am 23.7 16.9 7.8 36 8.5 SSW 33 44 18 24 1007.7 1006.1 0.0
25/12:30am 25.1 17.7 6.8 31 9.7 SSW 35 48 19 26 1007.4 1005.8 0.0
25/12:26am 25.4 18.0 6.6 30 9.9 SSW 35 48 19 26 1007.3 1005.7 0.0
25/12:00am 25.4 20.4 6.6 30 9.9 SSW 22 30 12 16 1007.0 1005.4 0.0
 
Date/Time
EDT
Temp
°C
App
Temp
°C
Dew
Point
Rel
Hum
%
Delta-T
°C
Wind Press
QNH
hPa
Press
MSL
hPa
Rain
since 9 am
mm
Dir
 
Spd
km/h
Gust
km/h
Spd
kts
Gust
kts
24/11:30pm 24.7 21.7 7.8 34 9.1 SSW 13 17 7 9 1006.9 1005.3 0.0
24/11:00pm 25.9 22.6 8.0 32 9.7 SSW 15 20 8 11 1006.6 1004.9 0.0
24/10:30pm 26.3 25.5 11.6 40 8.5 S 7 15 4 8 1006.4 1004.7 0.0
24/10:00pm 26.5 25.7 11.8 40 8.5 SSE 7 11 4 6 1006.0 1004.3 0.0
24/09:30pm 27.8 27.7 10.9 35 9.7 SSW 2 9 1 5 1005.5 1003.8 0.0
24/09:00pm 27.9 26.7 11.5 36 9.6 SW 9 11 5 6 1005.2 1003.5 0.0
24/08:30pm 29.7 27.4 10.3 30 11.1 WSW 13 17 7 9 1004.8 1003.1 0.0
24/08:00pm 31.2 27.3 9.4 26 12.5 WSW 20 26 11 14 1004.1 1002.5 0.0
24/07:30pm 31.9 28.3 10.0 26 12.6 WSW 19 24 10 13 1003.7 1002.1 0.0
24/07:00pm 32.3 28.8 10.9 27 12.6 WSW 20 30 11 16 1003.6 1001.9 0.0
24/06:30pm 32.7 29.9 11.3 27 12.7 WNW 17 32 9 17 1003.6 1001.9 0.0
24/06:00pm 32.3 29.3 12.0 29 12.1 WSW 19 28 10 15 1004.0 1002.4 0.0
24/05:30pm 32.6 30.4 13.3 31 11.7 SW 17 30 9 16 1004.1 1002.5 0.0
24/05:00pm 31.9 31.0 12.7 31 11.6 WSW 9 17 5 9 1004.6 1002.9 0.0
24/04:30pm 32.0 30.8 12.8 31 11.6 NW 11 26 6 14 1004.8 1003.1 0.0
24/04:00pm 32.1 32.0 13.8 33 11.2 SSW 7 24 4 13 1005.4 1003.7 0.0
24/03:30pm 32.3 31.5 13.0 31 11.7 SW 9 20 5 11 1005.8 1004.1 0.0
24/03:00pm 30.7 29.3 12.1 32 11.1 SSW 11 24 6 13 1006.1 1004.4 0.0
24/02:30pm 30.2 29.0 11.7 32 10.9 WNW 9 19 5 10 1006.5 1004.8 0.0
24/02:00pm 29.5 27.9 11.5 33 10.6 WSW 11 17 6 9 1006.7 1005.0 0.0
24/01:30pm 28.6 27.3 11.2 34 10.1 WNW 9 15 5 8 1006.9 1005.3 0.0
24/01:00pm 27.9 25.9 11.5 36 9.5 SSW 13 20 7 11 1007.3 1005.7 0.0
24/12:30pm 27.7 25.4 12.9 40 8.8 S 17 24 9 13 1007.6 1006.0 0.0
24/12:00pm 26.9 23.5 11.4 38 9.0 SSW 20 28 11 15 1007.7 1006.1 0.0
24/11:30am 26.0 23.0 12.5 43 7.9 S 20 30 11 16 1007.5 1005.9 0.0
24/11:00am 24.4 20.3 11.4 44 7.4 SSW 24 33 13 18 1007.9 1006.3 0.0
24/10:30am 23.8 20.1 12.8 50 6.4 S 24 32 13 17 1007.8 1006.2 0.0
24/10:00am 22.8 18.6 11.2 48 6.6 SSW 24 35 13 19 1007.9 1006.3 0.0
24/09:30am 22.2 19.1 12.2 53 5.7 S 20 26 11 14 1008.1 1006.4 3.2
24/09:00am 20.8 16.2 10.9 53 5.5 S 26 32 14 17 1007.6 1006.0 3.2
24/08:30am 20.0 15.7 10.7 55 5.1 S 24 32 13 17 1007.3 1005.7 3.2
24/08:00am 19.4 14.8 10.9 58 4.7 S 26 32 14 17 1007.1 1005.5 3.2
24/07:30am 18.6 14.7 10.9 61 4.2 SSW 22 28 12 15 1006.9 1005.3 3.2
24/07:00am 18.8 15.2 10.6 59 4.5 S 20 30 11 16 1006.7 1005.0 3.2
24/06:30am 19.3 17.4 11.8 62 4.2 S 13 19 7 10 1006.9 1005.3 3.2
24/06:00am 20.2 17.1 11.7 58 4.8 S 19 26 10 14 1006.6 1004.9 3.2
24/05:30am 20.7 18.0 13.4 63 4.2 S 20 26 11 14 1006.5 1004.8 3.2
24/05:00am 21.5 19.2 14.2 63 4.3 S 19 24 10 13 1006.2 1004.5 3.2
24/04:30am 22.7 23.3 18.7 78 2.6 S 13 19 7 10 1006.4 1004.7 3.2
24/04:00am 24.1 27.4 19.2 74 3.2 CALM 0 0 0 0 1006.6 1004.9 3.2
24/03:30am 23.7 27.0 20.0 80 2.4 NNE 2 6 1 3 1006.9 1005.3 3.2
24/03:00am 23.5 26.5 20.8 85 1.8 ENE 6 7 3 4 1007.0 1005.4 3.2
24/02:30am 23.2 25.2 20.7 86 1.6 ENE 11 13 6 7 1007.2 1005.6 3.2
24/02:00am 23.0 25.0 20.7 87 1.5 NE 11 15 6 8 1007.6 1006.0 3.2
24/01:30am 23.1 25.0 20.6 86 1.6 NE 11 15 6 8 1007.8 1006.2 3.2
24/01:00am 23.3 24.0 19.7 80 2.3 N 15 19 8 10 1008.1 1006.4 2.2
24/12:30am 23.7 25.9 20.4 82 2.2 NW 9 13 5 7 1007.6 1006.0 1.0
24/12:00am 24.0 25.7 20.1 79 2.6 N 11 15 6 8 1007.4 1005.8 0.8
 
Date/Time
EDT
Temp
°C
App
Temp
°C
Dew
Point
Rel
Hum
%
Delta-T
°C
Wind Press
QNH
hPa
Press
MSL
hPa
Rain
since 9 am
mm
Dir
 
Spd
km/h
Gust
km/h
Spd
kts
Gust
kts
23/11:30pm 24.8 25.9 19.6 73 3.4 NNW 13 17 7 9 1007.7 1006.1 0.2
23/11:00pm 26.1 27.6 19.0 65 4.6 NW 9 13 5 7 1007.2 1005.6 0.0
23/10:30pm 27.0 27.0 18.0 58 5.8 W 15 24 8 13 1007.5 1005.9 0.0
23/10:00pm 27.1 28.4 18.4 59 5.6 E 9 13 5 7 1006.8 1005.1 0.0
23/09:30pm 27.0 27.6 18.6 60 5.4 NE 13 17 7 9 1006.2 1004.5 0.0
23/09:00pm 26.8 28.1 19.2 63 5.0 NE 11 24 6 13 1006.1 1004.4 0.0
23/08:30pm 28.5 26.4 15.1 44 8.3 WNW 20 26 11 14 1005.9 1004.2 0.0
23/08:00pm 28.9 26.1 15.4 44 8.4 SW 24 35 13 19 1006.1 1004.4 0.0
23/07:30pm 29.6 25.8 14.6 40 9.2 WSW 28 39 15 21 1005.8 1004.1 0.0
23/07:00pm 30.1 25.1 15.0 40 9.4 WSW 35 57 19 31 1004.7 1003.0 0.0
23/06:55pm 31.9 28.9 13.6 32 11.2 WNW 22 56 12 30 1004.6 1002.9 0.0
23/06:54pm 33.3 30.7 13.9 31 11.9 WNW 20 43 11 23 1004.5 1002.8 0.0
23/06:30pm 35.6 33.7 11.9 24 14.3 W 13 22 7 12 1003.4 1001.7 0.0
23/06:00pm 36.9 35.8 13.0 24 14.8 WNW 11 19 6 10 1003.4 1001.7 0.0
23/05:30pm 36.2 34.9 12.4 24 14.5 W 11 20 6 11 1003.7 1002.1 0.0
23/05:00pm 36.2 35.1 11.8 23 14.8 NNW 9 20 5 11 1004.1 1002.5 0.0
23/04:30pm 36.2 32.8 11.1 22 15.0 WNW 20 26 11 14 1004.5 1002.8 0.0
23/04:00pm 37.3 35.7 12.7 23 15.1 NW 13 20 7 11 1004.9 1003.2 0.0
23/03:30pm 36.1 34.7 12.3 24 14.5 NW 11 19 6 10 1005.2 1003.5 0.0
23/03:00pm 36.7 33.8 12.2 23 14.9 WNW 19 32 10 17 1005.5 1003.8 0.0
23/02:30pm 36.8 35.2 12.9 24 14.7 WNW 13 22 7 12 1005.8 1004.1 0.0
23/02:00pm 35.5 33.1 12.5 25 14.0 NW 17 26 9 14 1006.1 1004.4 0.0
23/01:30pm 34.9 34.4 12.5 25 13.6 NNW 7 17 4 9 1006.3 1004.6 0.0
23/01:00pm 34.8 33.9 12.5 26 13.6 NNW 9 17 5 9 1006.7 1005.0 0.0
23/12:30pm 34.3 33.2 12.0 25 13.4 NNW 9 19 5 10 1007.2 1005.6 0.0
23/12:00pm 34.5 33.1 13.3 27 13.0 W 13 24 7 13 1007.6 1006.0 0.0
23/11:30am 33.6 32.1 12.0 27 12.9 NE 11 20 6 11 1007.9 1006.3 0.0
23/11:00am 32.9 30.8 12.5 29 12.3 NNW 15 22 8 12 1008.2 1006.5 0.0
23/10:30am 32.9 31.2 12.5 29 12.3 N 13 20 7 11 1008.3 1006.6 0.0
23/10:00am 32.5 30.7 13.2 31 11.7 NNW 15 22 8 12 1008.5 1006.8 0.0
23/09:30am 31.5 29.5 12.8 32 11.3 N 15 19 8 10 1008.4 1006.7 0.0
23/09:00am 30.8 29.6 14.0 36 10.3 NNE 13 17 7 9 1008.3 1006.6 0.0
23/08:30am 29.5 28.9 14.5 40 9.2 NNE 11 17 6 9 1008.1 1006.4 0.0
23/08:00am 28.1 27.4 14.3 42 8.4 NNE 11 15 6 8 1007.8 1006.2 0.0
23/07:30am 26.7 26.3 15.1 49 7.1 N 11 13 6 7 1007.6 1006.0 0.0
23/07:00am 22.8 24.1 15.1 62 4.7 N 2 6 1 3 1007.6 1006.0 0.0
23/06:30am 25.6 25.4 14.7 51 6.6 N 9 11 5 6 1007.3 1005.7 0.0
23/06:00am 25.5 25.6 16.4 57 5.7 N 11 13 6 7 1007.1 1005.5 0.0
23/05:30am 22.9 23.4 15.5 63 4.5 N 7 9 4 5 1007.1 1005.5 0.0
23/05:00am 25.2 24.6 14.6 51 6.4 N 11 11 6 6 1006.8 1005.1 0.0
23/04:30am 26.1 26.4 16.1 54 6.2 N 9 11 5 6 1006.9 1005.3 0.0
23/04:00am 23.8 24.2 15.3 59 5.2 N 7 9 4 5 1007.0 1005.4 0.0
23/03:30am 23.5 24.9 15.5 60 4.9 N 2 7 1 4 1007.1 1005.5 0.0
23/03:00am 24.2 24.5 15.1 56 5.5 N 7 9 4 5 1007.3 1005.7 0.0
23/02:30am 27.0 26.7 15.4 49 7.1 N 11 13 6 7 1007.5 1005.9 0.0
23/02:00am 27.0 27.0 15.1 48 7.3 NNE 9 11 5 6 1007.7 1006.1 0.0
23/01:30am 27.3 26.9 15.3 48 7.4 NNE 11 13 6 7 1007.8 1006.2 0.0
23/01:00am 27.7 27.4 15.4 47 7.6 N 11 13 6 7 1008.1 1006.4 0.0
23/12:30am 27.8 27.5 15.5 47 7.6 NNE 11 13 6 7 1008.3 1006.6 0.0
23/12:00am 27.7 28.1 15.4 47 7.6 NNE 7 11 4 6 1008.6 1006.9 0.0
 
Date/Time
EDT
Temp
°C
App
Temp
°C
Dew
Point
Rel
Hum
%
Delta-T
°C
Wind Press
QNH
hPa
Press
MSL
hPa
Rain
since 9 am
mm
Dir
 
Spd
km/h
Gust
km/h
Spd
kts
Gust
kts
22/11:30pm 27.7 27.4 15.4 47 7.6 NE 11 11 6 6 1008.7 1007.0 0.0
22/11:00pm 28.2 28.0 14.8 44 8.2 NE 9 13 5 7 1008.7 1007.0 0.0
22/10:30pm 28.8 27.8 14.6 42 8.7 NE 13 13 7 7 1008.5 1006.8 0.0
22/10:00pm 29.2 29.0 14.6 41 9.0 NE 9 13 5 7 1008.3 1006.6 0.0

Other Formats:

Comma delimited format used in spreadsheet applications
http://www.bom.gov.au/fwo/IDN60801/IDN60801.94691.axf

JavaScript Object Notation format (JSON) in row-major order
http://www.bom.gov.au/fwo/IDN60801/IDN60801.94691.json